createdAt,value
2018-12-07T00:00:42.990Z,14.87
2018-12-07T00:03:10.082Z,14.88
2018-12-07T00:05:36.728Z,14.91
2018-12-07T00:08:03.372Z,14.96
2018-12-07T00:10:30.084Z,14.81
2018-12-07T00:12:56.742Z,14.84
2018-12-07T00:15:23.387Z,14.86
2018-12-07T00:17:50.026Z,14.85
2018-12-07T00:20:16.736Z,14.79
2018-12-07T00:22:43.388Z,14.79
2018-12-07T00:25:10.035Z,14.72
2018-12-07T00:27:36.735Z,14.71
2018-12-07T00:30:03.384Z,14.72
2018-12-07T00:32:30.037Z,14.70
2018-12-07T00:34:56.770Z,14.67
2018-12-07T00:37:23.329Z,14.68
2018-12-07T00:39:50.035Z,14.64
2018-12-07T00:42:16.684Z,14.62
2018-12-07T00:44:43.324Z,14.62
2018-12-07T00:47:09.978Z,14.66
2018-12-07T00:49:36.619Z,14.68
2018-12-07T00:52:04.025Z,14.72
2018-12-07T00:54:30.664Z,14.71
2018-12-07T00:56:57.318Z,14.65
2018-12-07T00:59:23.953Z,14.68
2018-12-07T01:01:50.661Z,14.68
2018-12-07T01:04:17.358Z,14.61
2018-12-07T01:06:43.966Z,14.61
2018-12-07T01:09:10.682Z,14.56
2018-12-07T01:11:40.157Z,14.54
2018-12-07T01:14:06.849Z,14.51
2018-12-07T01:16:33.498Z,14.50
2018-12-07T01:19:00.211Z,14.45
2018-12-07T01:21:26.889Z,14.46
2018-12-07T01:23:53.545Z,14.44
2018-12-07T01:26:20.249Z,14.44
2018-12-07T01:28:46.886Z,14.37
2018-12-07T01:31:13.535Z,14.38
2018-12-07T01:33:40.186Z,14.38
2018-12-07T01:36:06.830Z,14.42
2018-12-07T01:38:33.536Z,14.46
2018-12-07T01:41:00.177Z,14.45
2018-12-07T01:43:26.824Z,14.41
2018-12-07T01:45:53.467Z,14.42
2018-12-07T01:48:21.322Z,14.37
2018-12-07T01:50:47.983Z,14.34
2018-12-07T01:53:14.706Z,14.33
2018-12-07T01:55:41.360Z,14.33
2018-12-07T01:58:08.001Z,14.32
2018-12-07T02:00:34.705Z,14.28
2018-12-07T02:03:02.387Z,14.29
2018-12-07T02:05:29.125Z,14.26
2018-12-07T02:07:55.765Z,14.28
2018-12-07T02:10:22.412Z,14.24
2018-12-07T02:12:49.123Z,14.26
2018-12-07T02:15:15.760Z,14.23
2018-12-07T02:17:42.425Z,14.23
2018-12-07T02:20:09.070Z,14.21
2018-12-07T02:22:35.843Z,14.23
2018-12-07T02:25:02.478Z,14.27
2018-12-07T02:27:29.119Z,14.29
2018-12-07T02:29:55.766Z,14.24
2018-12-07T02:32:22.423Z,14.29
2018-12-07T02:34:49.067Z,14.30
2018-12-07T02:37:15.856Z,14.26
2018-12-07T02:39:42.514Z,14.24
2018-12-07T02:42:09.160Z,14.16
2018-12-07T02:44:35.800Z,14.18
2018-12-07T02:47:02.495Z,14.15
2018-12-07T02:49:29.137Z,14.16
2018-12-07T02:51:55.785Z,14.14
2018-12-07T02:54:22.434Z,14.10
2018-12-07T02:56:49.125Z,14.11
2018-12-07T02:59:15.812Z,14.09
2018-12-07T03:01:42.459Z,14.07
2018-12-07T03:04:09.248Z,14.08
2018-12-07T03:06:35.901Z,14.03
2018-12-07T03:09:02.605Z,14.02
2018-12-07T03:11:29.261Z,14.00
2018-12-07T03:13:55.969Z,14.02
2018-12-07T03:16:22.612Z,14.09
2018-12-07T03:18:49.260Z,14.10
2018-12-07T03:21:15.908Z,14.07
2018-12-07T03:23:42.563Z,14.08
2018-12-07T03:26:09.218Z,14.05
2018-12-07T03:28:35.860Z,14.01
2018-12-07T03:31:02.564Z,13.99
2018-12-07T03:33:29.205Z,13.96
2018-12-07T03:35:55.895Z,13.95
2018-12-07T03:38:22.555Z,13.92
2018-12-07T03:40:49.210Z,13.90
2018-12-07T03:43:15.848Z,13.86
2018-12-07T03:45:43.844Z,13.81
2018-12-07T03:48:09.202Z,13.80
2018-12-07T03:50:35.900Z,13.80
2018-12-07T03:53:02.541Z,13.77
2018-12-07T03:55:29.225Z,13.80
2018-12-07T03:57:55.875Z,13.78
2018-12-07T04:00:22.525Z,13.79
2018-12-07T04:02:49.259Z,13.82
2018-12-07T04:05:15.879Z,13.84
2018-12-07T04:07:42.600Z,13.75
2018-12-07T04:10:09.266Z,13.78
2018-12-07T04:12:35.918Z,13.79
2018-12-07T04:15:02.626Z,13.73
2018-12-07T04:17:29.314Z,13.74
2018-12-07T04:19:55.960Z,13.70
2018-12-07T04:22:22.671Z,13.66
2018-12-07T04:24:49.440Z,13.66
2018-12-07T04:27:16.127Z,13.65
2018-12-07T04:29:42.834Z,13.62
2018-12-07T04:32:09.482Z,13.64
2018-12-07T04:34:36.170Z,13.61
2018-12-07T04:37:02.808Z,13.64
2018-12-07T04:39:29.470Z,13.63
2018-12-07T04:41:56.123Z,13.63
2018-12-07T04:44:22.818Z,13.58
2018-12-07T04:46:49.453Z,13.60
2018-12-07T04:49:16.104Z,13.60
2018-12-07T04:51:42.813Z,13.70
2018-12-07T04:54:09.513Z,13.69
2018-12-07T04:56:36.158Z,13.60
2018-12-07T04:59:02.808Z,13.53
2018-12-07T05:01:29.461Z,13.61
2018-12-07T05:03:56.109Z,13.62
2018-12-07T05:06:22.755Z,13.47
2018-12-07T05:08:49.457Z,13.68
2018-12-07T05:11:16.099Z,13.62
2018-12-07T05:13:42.746Z,13.64
2018-12-07T05:16:09.441Z,13.63
2018-12-07T05:18:36.127Z,13.70
2018-12-07T05:21:02.821Z,13.65
2018-12-07T05:23:29.461Z,13.74
2018-12-07T05:25:56.218Z,13.75
2018-12-07T05:28:22.921Z,13.73
2018-12-07T05:30:49.562Z,13.81
2018-12-07T05:33:16.225Z,13.83
2018-12-07T05:35:42.876Z,13.98
2018-12-07T05:38:09.571Z,14.27
2018-12-07T05:40:36.289Z,14.08
2018-12-07T05:43:02.931Z,14.13
2018-12-07T05:45:29.627Z,14.18
2018-12-07T05:47:56.287Z,14.16
2018-12-07T05:50:22.927Z,14.10
2018-12-07T05:52:49.585Z,14.26
2018-12-07T05:55:16.237Z,14.35
2018-12-07T05:57:42.879Z,14.39
2018-12-07T06:00:09.544Z,14.42
2018-12-07T06:02:36.203Z,14.48
2018-12-07T06:05:02.896Z,14.32
2018-12-07T06:07:29.546Z,14.40
2018-12-07T06:09:56.198Z,14.40
2018-12-07T06:12:22.843Z,14.41
2018-12-07T06:14:49.542Z,14.45
2018-12-07T06:17:16.181Z,14.42
2018-12-07T06:19:42.842Z,14.44
2018-12-07T06:22:09.533Z,14.37
2018-12-07T06:24:36.230Z,14.21
2018-12-07T06:27:02.915Z,14.25
2018-12-07T06:29:29.607Z,14.30
2018-12-07T06:31:56.255Z,14.24
2018-12-07T06:34:22.910Z,14.24
2018-12-07T06:36:49.666Z,14.25
2018-12-07T06:39:16.526Z,14.41
2018-12-07T06:41:43.148Z,14.39
2018-12-07T06:44:09.877Z,14.18
2018-12-07T06:46:36.527Z,14.27
2018-12-07T06:49:03.231Z,14.12
2018-12-07T06:51:29.931Z,14.05
2018-12-07T06:53:57.140Z,13.94
2018-12-07T06:56:23.847Z,13.85
2018-12-07T06:58:50.500Z,14.18
2018-12-07T07:01:17.158Z,14.17
2018-12-07T07:03:43.820Z,13.89
2018-12-07T07:06:10.488Z,14.05
2018-12-07T07:08:37.270Z,14.12
2018-12-07T07:11:03.906Z,14.34
2018-12-07T07:13:30.571Z,14.50
2018-12-07T07:15:57.237Z,14.55
2018-12-07T07:18:23.924Z,14.77
2018-12-07T07:20:50.587Z,14.78
2018-12-07T07:23:17.246Z,14.39
2018-12-07T07:25:43.945Z,14.35
2018-12-07T07:28:10.675Z,14.26
2018-12-07T07:30:37.322Z,14.31
2018-12-07T07:33:03.973Z,14.37
2018-12-07T07:35:30.677Z,14.15
2018-12-07T07:37:57.319Z,14.07
2018-12-07T07:40:23.988Z,14.32
2018-12-07T07:42:50.666Z,14.17
2018-12-07T07:45:17.453Z,13.94
2018-12-07T07:47:44.159Z,14.00
2018-12-07T07:50:10.828Z,14.30
2018-12-07T07:52:37.567Z,13.97
2018-12-07T07:55:05.254Z,13.95
2018-12-07T07:57:31.938Z,14.08
2018-12-07T07:59:58.652Z,13.98
2018-12-07T08:02:25.340Z,14.19
2018-12-07T08:04:51.992Z,14.28
2018-12-07T08:07:18.644Z,14.14
2018-12-07T08:09:45.874Z,14.03
2018-12-07T08:12:12.536Z,14.22
2018-12-07T08:14:40.206Z,14.21
2018-12-07T08:17:06.881Z,14.26
2018-12-07T08:19:33.529Z,14.46
2018-12-07T08:22:00.217Z,14.31
2018-12-07T08:24:26.923Z,14.29
2018-12-07T08:26:53.571Z,14.45
2018-12-07T08:29:20.227Z,14.43
2018-12-07T08:31:46.870Z,14.60
2018-12-07T08:34:13.530Z,14.70
2018-12-07T08:36:40.178Z,14.65
2018-12-07T08:39:06.849Z,14.44
2018-12-07T08:41:33.596Z,14.50
2018-12-07T08:44:00.301Z,14.69
2018-12-07T08:46:26.957Z,14.52
2018-12-07T08:48:53.639Z,14.77
2018-12-07T08:51:20.389Z,14.75
2018-12-07T08:53:47.256Z,14.79
2018-12-07T08:56:13.914Z,14.68
2018-12-07T08:58:40.644Z,14.70
2018-12-07T09:01:07.429Z,14.94
2018-12-07T09:03:34.171Z,15.06
2018-12-07T09:06:00.885Z,14.91
2018-12-07T09:08:27.601Z,14.88
2018-12-07T09:10:56.437Z,15.11
2018-12-07T09:13:23.121Z,15.00
2018-12-07T09:15:49.771Z,15.17
2018-12-07T09:18:16.468Z,15.20
2018-12-07T09:20:43.184Z,15.17
2018-12-07T09:23:09.861Z,15.40
2018-12-07T09:25:36.515Z,15.49
2018-12-07T09:28:03.172Z,15.40
2018-12-07T09:30:29.867Z,15.43
2018-12-07T09:32:56.578Z,15.48
2018-12-07T09:35:23.338Z,15.57
2018-12-07T09:37:49.951Z,15.39
2018-12-07T09:40:16.656Z,15.64
2018-12-07T09:42:43.430Z,15.54
2018-12-07T09:45:10.125Z,15.59
2018-12-07T09:47:36.833Z,15.48
2018-12-07T09:50:03.479Z,15.48
2018-12-07T09:52:30.185Z,15.49
2018-12-07T09:54:56.827Z,15.54
2018-12-07T09:57:23.479Z,15.44
2018-12-07T09:59:50.137Z,15.45
2018-12-07T10:02:16.941Z,15.50
2018-12-07T10:04:43.643Z,15.23
2018-12-07T10:07:10.284Z,15.47
2018-12-07T10:09:36.938Z,15.44
2018-12-07T10:12:03.638Z,15.58
2018-12-07T10:14:30.348Z,15.47
2018-12-07T10:16:57.187Z,15.44
2018-12-07T10:19:23.856Z,15.55
2018-12-07T10:21:50.587Z,15.66
2018-12-07T10:24:17.177Z,15.62
2018-12-07T10:26:43.873Z,15.61
2018-12-07T10:29:10.526Z,15.38
2018-12-07T10:31:37.179Z,15.75
2018-12-07T10:34:03.949Z,15.61
2018-12-07T10:36:30.595Z,15.63
2018-12-07T10:38:57.291Z,15.78
2018-12-07T10:41:23.926Z,15.65
2018-12-07T10:43:50.621Z,15.58
2018-12-07T10:46:17.278Z,15.65
2018-12-07T10:48:43.975Z,15.90
2018-12-07T10:51:10.672Z,15.80
2018-12-07T10:53:37.343Z,15.73
2018-12-07T10:56:05.229Z,15.73
2018-12-07T10:58:30.657Z,15.91
2018-12-07T11:00:57.383Z,15.85
2018-12-07T11:03:26.266Z,15.97
2018-12-07T11:05:53.007Z,15.99
2018-12-07T11:08:19.750Z,16.04
2018-12-07T11:10:46.392Z,16.02
2018-12-07T11:13:13.113Z,15.97
2018-12-07T11:15:39.785Z,16.00
2018-12-07T11:18:06.436Z,16.10
2018-12-07T11:20:33.120Z,16.20
2018-12-07T11:23:00.259Z,16.29
2018-12-07T11:25:26.984Z,16.29
2018-12-07T11:27:53.652Z,16.27
2018-12-07T11:30:20.313Z,16.24
2018-12-07T11:32:48.066Z,16.55
2018-12-07T11:35:17.566Z,16.51
2018-12-07T11:37:44.202Z,16.48
2018-12-07T11:40:10.911Z,16.42
2018-12-07T11:42:37.568Z,16.63
2018-12-07T11:45:04.214Z,16.72
2018-12-07T11:47:30.866Z,16.74
2018-12-07T11:49:57.585Z,16.81
2018-12-07T11:52:27.808Z,16.81
2018-12-07T11:54:54.513Z,16.93
2018-12-07T11:57:22.330Z,16.90
2018-12-07T11:59:49.051Z,16.93
2018-12-07T12:02:15.768Z,16.87
2018-12-07T12:04:42.426Z,16.83
2018-12-07T12:07:09.106Z,16.63
2018-12-07T12:09:35.747Z,16.63
2018-12-07T12:12:02.422Z,16.95
2018-12-07T12:14:30.308Z,16.80
2018-12-07T12:16:56.959Z,17.13
2018-12-07T12:19:24.730Z,17.12
2018-12-07T12:21:51.384Z,17.16
2018-12-07T12:24:18.089Z,17.14
2018-12-07T12:26:44.833Z,17.19
2018-12-07T12:29:11.470Z,16.86
2018-12-07T12:31:40.272Z,17.04
2018-12-07T12:34:09.038Z,17.08
2018-12-07T12:36:37.032Z,17.04
2018-12-07T12:39:03.868Z,17.18
2018-12-07T12:41:30.918Z,16.95
2018-12-07T12:43:57.655Z,17.03
2018-12-07T12:46:24.494Z,17.00
2018-12-07T12:48:51.278Z,16.85
2018-12-07T12:51:18.083Z,17.04
2018-12-07T12:53:44.773Z,17.28
2018-12-07T12:56:14.130Z,17.45
2018-12-07T12:58:43.546Z,17.14
2018-12-07T13:01:10.288Z,17.16
2018-12-07T13:03:36.958Z,17.03
2018-12-07T13:06:03.603Z,17.04
2018-12-07T13:08:30.357Z,17.03
2018-12-07T13:10:57.053Z,17.00
2018-12-07T13:13:23.694Z,17.03
2018-12-07T13:15:50.448Z,17.14
2018-12-07T13:18:17.142Z,17.19
2018-12-07T13:20:43.840Z,17.15
2018-12-07T13:23:10.538Z,17.45
2018-12-07T13:25:37.219Z,17.47
2018-12-07T13:28:03.983Z,17.47
2018-12-07T13:30:30.631Z,17.57
2018-12-07T13:32:57.355Z,17.33
2018-12-07T13:35:24.016Z,17.25
2018-12-07T13:37:51.040Z,17.56
2018-12-07T13:40:17.975Z,17.62
2018-12-07T13:42:44.637Z,17.74
2018-12-07T13:45:11.531Z,17.64
2018-12-07T13:47:38.113Z,17.76
2018-12-07T13:50:05.819Z,17.70
2018-12-07T13:52:32.609Z,17.75
2018-12-07T13:54:59.243Z,17.63
2018-12-07T13:57:25.984Z,17.73
2018-12-07T13:59:54.154Z,17.78
2018-12-07T14:02:19.436Z,17.62
2018-12-07T14:04:46.111Z,17.88
2018-12-07T14:07:12.949Z,17.71
2018-12-07T14:09:39.470Z,18.15
2018-12-07T14:12:06.244Z,17.92
2018-12-07T14:14:32.939Z,18.10
2018-12-07T14:17:01.221Z,17.93
2018-12-07T14:19:27.898Z,17.90
2018-12-07T14:21:54.547Z,17.79
2018-12-07T14:24:21.172Z,17.93
2018-12-07T14:26:47.883Z,18.02
2018-12-07T14:29:14.752Z,17.78
2018-12-07T14:31:41.411Z,17.75
2018-12-07T14:34:08.221Z,17.98
2018-12-07T14:36:34.984Z,17.98
2018-12-07T14:39:01.612Z,17.70
2018-12-07T14:41:28.533Z,17.91
2018-12-07T14:43:55.020Z,17.87
2018-12-07T14:46:21.672Z,17.95
2018-12-07T14:48:48.324Z,17.88
2018-12-07T14:51:15.074Z,17.99
2018-12-07T14:53:41.732Z,17.87
2018-12-07T14:56:08.455Z,18.02
2018-12-07T14:58:35.247Z,17.95
2018-12-07T15:01:01.979Z,18.02
2018-12-07T15:03:28.889Z,17.89
2018-12-07T15:05:55.349Z,17.86
2018-12-07T15:08:22.058Z,17.79
2018-12-07T15:10:48.861Z,17.94
2018-12-07T15:13:15.483Z,17.96
2018-12-07T15:15:41.992Z,18.05
2018-12-07T15:18:09.962Z,18.29
2018-12-07T15:20:36.524Z,18.43
2018-12-07T15:23:03.211Z,18.39
2018-12-07T15:25:29.880Z,18.37
2018-12-07T15:27:56.564Z,18.23
2018-12-07T15:30:23.463Z,18.11
2018-12-07T15:32:49.990Z,17.83
2018-12-07T15:35:16.828Z,17.92
2018-12-07T15:37:43.406Z,17.94
2018-12-07T15:40:10.049Z,17.93
2018-12-07T15:42:36.856Z,17.71
2018-12-07T15:45:03.442Z,17.78
2018-12-07T15:47:30.333Z,17.64
2018-12-07T15:49:56.966Z,17.64
2018-12-07T15:52:23.744Z,17.60
2018-12-07T15:54:50.454Z,17.61
2018-12-07T15:57:17.088Z,17.52
2018-12-07T15:59:44.219Z,17.49
2018-12-07T16:02:10.960Z,17.46
2018-12-07T16:04:38.943Z,17.43
2018-12-07T16:07:05.679Z,17.36
2018-12-07T16:09:32.926Z,17.26
2018-12-07T16:11:59.750Z,17.25
2018-12-07T16:14:26.349Z,17.22
2018-12-07T16:16:52.922Z,17.19
2018-12-07T16:19:19.679Z,17.18
2018-12-07T16:21:46.556Z,17.11
2018-12-07T16:24:13.389Z,17.08
2018-12-07T16:26:39.899Z,17.12
2018-12-07T16:29:06.803Z,17.10
2018-12-07T16:31:33.544Z,17.10
2018-12-07T16:34:00.323Z,16.89
2018-12-07T16:36:27.256Z,17.18
2018-12-07T16:38:53.886Z,16.92
2018-12-07T16:41:20.645Z,17.01
2018-12-07T16:43:47.190Z,16.95
2018-12-07T16:46:13.936Z,16.96
2018-12-07T16:48:40.506Z,17.01
2018-12-07T16:51:07.220Z,16.98
2018-12-07T16:53:33.907Z,16.90
2018-12-07T16:56:00.666Z,16.93
2018-12-07T16:58:27.287Z,16.91
2018-12-07T17:00:54.014Z,16.88
2018-12-07T17:03:20.552Z,16.82
2018-12-07T17:05:47.619Z,16.81
2018-12-07T17:08:14.104Z,16.71
2018-12-07T17:10:40.718Z,16.70
2018-12-07T17:13:07.243Z,16.67
2018-12-07T17:15:34.121Z,16.70
2018-12-07T17:18:00.685Z,16.67
2018-12-07T17:20:27.480Z,16.69
2018-12-07T17:22:54.015Z,16.66
2018-12-07T17:25:20.558Z,16.66
2018-12-07T17:27:47.458Z,16.59
2018-12-07T17:30:13.920Z,16.59
2018-12-07T17:32:40.599Z,16.51
2018-12-07T17:35:07.400Z,16.49
2018-12-07T17:37:34.983Z,16.43
2018-12-07T17:40:01.604Z,16.47
2018-12-07T17:42:29.757Z,16.37
2018-12-07T17:44:54.869Z,16.41
2018-12-07T17:47:21.631Z,16.33
2018-12-07T17:49:48.375Z,16.35
2018-12-07T17:52:14.876Z,16.32
2018-12-07T17:54:41.473Z,16.28
2018-12-07T17:57:08.257Z,16.24
2018-12-07T17:59:34.852Z,16.27
2018-12-07T18:02:01.434Z,16.22
2018-12-07T18:04:28.082Z,16.23
2018-12-07T18:06:54.959Z,16.14
2018-12-07T18:09:21.532Z,16.15
2018-12-07T18:11:48.294Z,16.12
2018-12-07T18:14:14.971Z,16.04
2018-12-07T18:16:41.899Z,16.00
2018-12-07T18:19:08.676Z,16.02
2018-12-07T18:21:35.162Z,16.01
2018-12-07T18:24:01.792Z,16.02
2018-12-07T18:26:28.809Z,15.99
2018-12-07T18:28:55.379Z,15.96
2018-12-07T18:31:22.071Z,15.92
2018-12-07T18:33:49.000Z,15.92
2018-12-07T18:36:15.670Z,15.87
2018-12-07T18:38:42.466Z,15.84
2018-12-07T18:41:09.275Z,15.81
2018-12-07T18:43:35.760Z,15.82
2018-12-07T18:46:02.431Z,15.78
2018-12-07T18:48:29.453Z,15.75
2018-12-07T18:50:55.935Z,15.68
2018-12-07T18:53:22.478Z,15.68
2018-12-07T18:55:49.064Z,15.67
2018-12-07T18:58:15.699Z,15.65
2018-12-07T19:00:42.452Z,15.68
2018-12-07T19:03:09.197Z,15.66
2018-12-07T19:05:35.701Z,15.63
2018-12-07T19:08:02.381Z,15.52
2018-12-07T19:10:29.041Z,15.61
2018-12-07T19:12:55.615Z,15.53
2018-12-07T19:15:22.254Z,15.57
2018-12-07T19:17:49.044Z,15.51
2018-12-07T19:20:15.723Z,15.52
2018-12-07T19:22:42.360Z,15.49
2018-12-07T19:25:08.909Z,15.52
2018-12-07T19:27:35.614Z,15.44
2018-12-07T19:30:02.389Z,15.44
2018-12-07T19:32:29.124Z,15.49
2018-12-07T19:34:55.728Z,15.47
2018-12-07T19:37:22.368Z,15.36
2018-12-07T19:39:48.939Z,15.44
2018-12-07T19:42:15.905Z,15.40
2018-12-07T19:44:42.444Z,15.42
2018-12-07T19:47:09.047Z,15.37
2018-12-07T19:49:35.773Z,15.42
2018-12-07T19:52:02.332Z,15.17
2018-12-07T19:54:29.139Z,15.33
2018-12-07T19:56:55.726Z,15.25
2018-12-07T19:59:22.429Z,15.35
2018-12-07T20:01:49.137Z,15.25
2018-12-07T20:04:15.773Z,15.31
2018-12-07T20:06:42.444Z,15.27
2018-12-07T20:09:09.102Z,15.24
2018-12-07T20:11:36.102Z,15.18
2018-12-07T20:14:02.373Z,15.21
2018-12-07T20:16:29.365Z,15.14
2018-12-07T20:18:55.724Z,15.20
2018-12-07T20:21:22.536Z,15.12
2018-12-07T20:23:49.097Z,15.10
2018-12-07T20:26:15.789Z,15.10
2018-12-07T20:28:42.544Z,15.11
2018-12-07T20:31:09.417Z,15.10
2018-12-07T20:33:36.285Z,15.02
2018-12-07T20:36:02.703Z,15.00
2018-12-07T20:38:29.558Z,15.02
2018-12-07T20:40:56.392Z,14.97
2018-12-07T20:43:23.036Z,14.96
2018-12-07T20:45:49.468Z,14.97
2018-12-07T20:48:16.145Z,14.89
2018-12-07T20:50:43.047Z,14.92
2018-12-07T20:53:09.708Z,14.98
2018-12-07T20:55:36.279Z,14.85
2018-12-07T20:58:04.072Z,14.92
2018-12-07T21:00:29.641Z,14.90
2018-12-07T21:02:56.282Z,14.86
2018-12-07T21:05:22.963Z,14.86
2018-12-07T21:07:49.701Z,14.88
2018-12-07T21:10:16.348Z,14.85
2018-12-07T21:12:45.160Z,14.83
2018-12-07T21:15:11.760Z,14.83
2018-12-07T21:17:38.644Z,14.81
2018-12-07T21:20:05.200Z,14.87
2018-12-07T21:22:32.006Z,14.82
2018-12-07T21:24:58.346Z,14.83
2018-12-07T21:27:25.128Z,14.84
2018-12-07T21:29:51.826Z,14.81
2018-12-07T21:32:18.404Z,14.85
2018-12-07T21:34:45.059Z,14.86
2018-12-07T21:37:12.017Z,14.82
2018-12-07T21:39:38.440Z,14.81
2018-12-07T21:42:05.058Z,14.78
2018-12-07T21:44:31.858Z,14.78
2018-12-07T21:46:58.430Z,14.74
2018-12-07T21:49:25.058Z,14.73
2018-12-07T21:51:52.035Z,14.71
2018-12-07T21:54:18.575Z,14.74
2018-12-07T21:56:45.283Z,14.74
2018-12-07T21:59:12.036Z,14.73
2018-12-07T22:01:38.950Z,14.74
2018-12-07T22:04:05.911Z,14.77
2018-12-07T22:06:32.424Z,14.76
2018-12-07T22:08:58.977Z,14.76
2018-12-07T22:11:25.880Z,14.76
2018-12-07T22:13:52.574Z,14.76
2018-12-07T22:16:18.920Z,14.86
2018-12-07T22:18:45.656Z,14.92
2018-12-07T22:21:12.561Z,14.87
2018-12-07T22:23:39.019Z,14.87
2018-12-07T22:26:05.605Z,14.91
2018-12-07T22:28:32.541Z,14.88
2018-12-07T22:30:59.021Z,14.88
2018-12-07T22:33:25.978Z,14.87
2018-12-07T22:35:52.560Z,14.86
2018-12-07T22:38:19.258Z,14.84
2018-12-07T22:40:45.833Z,14.88
2018-12-07T22:43:12.781Z,14.90
2018-12-07T22:45:39.112Z,14.90
2018-12-07T22:48:05.924Z,14.95
2018-12-07T22:50:32.438Z,14.95
2018-12-07T22:52:59.073Z,14.99
2018-12-07T22:55:25.709Z,14.99
2018-12-07T22:57:52.360Z,14.96
2018-12-07T23:00:19.074Z,15.00
2018-12-07T23:02:45.709Z,14.97
2018-12-07T23:05:12.568Z,15.01
2018-12-07T23:07:39.205Z,15.00
2018-12-07T23:10:05.862Z,14.96
2018-12-07T23:12:32.503Z,14.96
2018-12-07T23:14:59.207Z,14.95
2018-12-07T23:17:25.848Z,14.99
2018-12-07T23:19:52.548Z,14.98
2018-12-07T23:22:19.194Z,15.00
2018-12-07T23:24:48.902Z,15.15
2018-12-07T23:27:15.618Z,15.39
2018-12-07T23:29:42.260Z,15.37
2018-12-07T23:32:08.897Z,15.14
2018-12-07T23:34:35.557Z,15.07
2018-12-07T23:37:02.212Z,14.98
2018-12-07T23:39:28.922Z,14.97
2018-12-07T23:41:55.560Z,14.91
2018-12-07T23:44:22.264Z,14.87
2018-12-07T23:46:48.904Z,14.85
2018-12-07T23:49:15.546Z,14.80
2018-12-07T23:51:42.183Z,14.79
2018-12-07T23:54:08.896Z,14.84
2018-12-07T23:56:35.544Z,14.80
2018-12-07T23:59:02.182Z,14.83
